Time;durP1;ratioP1;P1;durP2;ratioP2;P2;SDS_P1;SDS_P2;PMS_P1;PMS_P2;Temp;Humidity;BMP_temperature;BMP_pressure;BME280_temperature;BME280_humidity;BME280_pressure;Samples;Min_cycle;Max_cycle;Signal;HPM_P1;HPM_P2
2023/08/14 00:02:11;;;;;;;6.88;3.40;;;24.70;99.90;;;;;;5070644;28;20051;-71
2023/08/14 00:05:15;;;;;;;5.13;3.92;;;24.70;99.90;;;;;;5058714;28;20047;-74
2023/08/14 00:08:19;;;;;;;5.35;3.28;;;24.80;99.90;;;;;;5070919;28;20032;-74
2023/08/14 00:11:24;;;;;;;7.80;3.72;;;24.70;99.90;;;;;;5071631;28;20055;-74
2023/08/14 00:14:28;;;;;;;5.53;3.50;;;24.70;99.90;;;;;;5085940;28;20051;-74
2023/08/14 00:17:32;;;;;;;4.20;3.00;;;24.60;99.90;;;;;;5070828;28;20804;-73
2023/08/14 00:20:36;;;;;;;4.57;3.20;;;24.60;99.90;;;;;;5075673;28;20054;-73
2023/08/14 00:23:40;;;;;;;6.50;3.38;;;24.50;99.90;;;;;;5072134;28;20050;-73
2023/08/14 00:26:44;;;;;;;4.40;3.65;;;24.40;99.90;;;;;;5090769;28;20493;-73
2023/08/14 00:29:48;;;;;;;7.55;4.18;;;24.30;99.90;;;;;;5089798;28;20047;-73
2023/08/14 00:32:52;;;;;;;8.15;3.75;;;24.10;99.90;;;;;;5089979;28;20043;-72
2023/08/14 00:35:58;;;;;;;7.03;4.20;;;23.90;99.90;;;;;;5082870;28;20042;-73
2023/08/14 00:39:03;;;;;;;8.48;4.22;;;23.70;99.90;;;;;;5089570;28;20043;-73
2023/08/14 00:42:07;;;;;;;6.47;4.30;;;23.60;99.90;;;;;;5089875;28;20048;-73
2023/08/14 00:45:11;;;;;;;7.50;4.30;;;23.50;99.90;;;;;;5077435;28;20043;-73
2023/08/14 00:48:15;;;;;;;4.72;4.20;;;23.20;99.90;;;;;;5089548;28;20051;-72
2023/08/14 00:51:22;;;;;;;7.60;4.28;;;23.10;99.90;;;;;;5089948;28;20043;-73
2023/08/14 00:54:26;;;;;;;5.95;4.63;;;22.90;99.90;;;;;;5089870;28;20068;-73
2023/08/14 00:57:31;;;;;;;8.82;5.47;;;22.80;99.90;;;;;;5089479;28;20043;-72
2023/08/14 01:00:36;;;;;;;8.75;4.93;;;22.70;99.90;;;;;;5089408;28;20042;-73
2023/08/14 01:03:40;;;;;;;6.07;5.22;;;22.70;99.90;;;;;;5077245;28;20047;-72
2023/08/14 01:06:45;;;;;;;8.48;5.00;;;22.70;99.90;;;;;;5089250;28;20391;-73
2023/08/14 01:09:49;;;;;;;5.10;4.60;;;22.60;99.90;;;;;;5090046;28;20039;-72
2023/08/14 01:13:21;;;;;;;11.10;5.18;;;22.50;99.90;;;;;;5077035;28;20047;-72
2023/08/14 01:16:30;;;;;;;8.52;5.18;;;22.50;99.90;;;;;;5090105;28;20379;-72
2023/08/14 01:19:39;;;;;;;6.57;4.95;;;22.50;99.90;;;;;;5089906;28;20043;-73
2023/08/14 01:22:45;;;;;;;7.32;5.05;;;22.40;99.90;;;;;;5084274;28;20047;-72
2023/08/14 01:25:52;;;;;;;6.03;5.00;;;22.30;99.90;;;;;;5089869;28;20068;-72
2023/08/14 01:28:57;;;;;;;5.75;4.68;;;22.10;99.90;;;;;;5077306;28;20051;-72
2023/08/14 01:32:01;;;;;;;12.38;5.18;;;22.00;99.90;;;;;;5089749;28;20062;-73
2023/08/14 01:35:06;;;;;;;7.70;5.25;;;22.00;99.90;;;;;;5089754;28;20047;-73
2023/08/14 01:38:36;;;;;;;9.18;4.72;;;22.00;99.90;;;;;;5089726;28;20047;-72
2023/08/14 01:41:59;;;;;;;10.93;5.00;;;22.00;99.90;;;;;;5080973;28;20047;-72
2023/08/14 01:45:12;;;;;;;9.07;5.00;;;22.00;99.90;;;;;;5093310;28;20042;-73
2023/08/14 01:48:17;;;;;;;10.52;4.72;;;22.10;99.90;;;;;;5093553;28;20039;-72
2023/08/14 01:51:22;;;;;;;4.70;4.20;;;22.10;99.90;;;;;;5093179;28;20043;-73
2023/08/14 01:54:27;;;;;;;9.10;4.90;;;22.20;99.90;;;;;;5080564;28;20504;-73
2023/08/14 01:57:32;;;;;;;8.02;4.82;;;22.30;99.90;;;;;;5080882;28;20047;-73
2023/08/14 02:00:37;;;;;;;10.07;4.85;;;22.40;99.90;;;;;;5080746;28;20517;-73
2023/08/14 02:03:41;;;;;;;6.70;4.13;;;22.40;99.90;;;;;;5092069;28;20051;-73
2023/08/14 02:06:45;;;;;;;8.18;4.18;;;22.50;99.90;;;;;;5092256;28;20039;-72
2023/08/14 02:17:12;;;;;;;4.97;4.00;;;22.30;99.90;;;;;;5092176;28;20051;-72
2023/08/14 02:20:19;;;;;;;8.23;4.43;;;22.30;99.90;;;;;;5080699;28;20043;-73
2023/08/14 02:23:23;;;;;;;4.93;3.90;;;22.30;99.90;;;;;;5079935;28;20241;-72
2023/08/14 02:27:05;;;;;;;6.60;3.88;;;22.30;99.90;;;;;;5092723;28;20067;-72
2023/08/14 02:38:01;;;;;;;7.70;4.28;;;22.30;99.90;;;;;;5092809;28;20399;-72
2023/08/14 02:41:24;;;;;;;6.25;4.20;;;22.30;99.90;;;;;;5080345;28;20398;-73
2023/08/14 02:51:15;;;;;;;7.15;3.70;;;22.10;99.90;;;;;;5090765;28;20395;-73
2023/08/14 02:54:19;;;;;;;6.93;4.13;;;22.10;99.90;;;;;;5068541;28;20387;-72
2023/08/14 02:57:23;;;;;;;5.88;3.83;;;22.00;99.90;;;;;;5092434;28;20059;-73
2023/08/14 03:00:27;;;;;;;5.80;4.57;;;22.00;99.90;;;;;;5092275;28;20082;-73
2023/08/14 03:03:31;;;;;;;8.70;4.43;;;21.90;99.90;;;;;;5079351;28;20043;-72
2023/08/14 03:06:35;;;;;;;9.95;4.90;;;21.80;99.90;;;;;;5092235;28;20498;-72
2023/08/14 03:09:39;;;;;;;6.03;4.40;;;21.80;99.90;;;;;;5092132;28;20391;-72
2023/08/14 03:16:05;;;;;;;6.95;4.32;;;21.70;99.90;;;;;;5092081;28;20039;-72
2023/08/14 03:19:09;;;;;;;8.77;4.47;;;21.60;99.90;;;;;;5079383;28;20039;-72
2023/08/14 03:22:13;;;;;;;5.10;4.10;;;21.60;99.90;;;;;;5079108;28;20055;-73
2023/08/14 03:25:35;;;;;;;5.45;3.88;;;21.50;99.90;;;;;;5091546;28;20047;-72
2023/08/14 03:28:39;;;;;;;7.30;4.93;;;21.50;99.90;;;;;;5091897;28;20394;-72
2023/08/14 03:31:43;;;;;;;7.88;4.45;;;21.50;99.90;;;;;;5078863;28;20047;-72
2023/08/14 03:35:06;;;;;;;8.35;3.97;;;21.50;99.90;;;;;;5079107;28;20047;-72
2023/08/14 03:38:10;;;;;;;7.57;3.85;;;21.50;99.90;;;;;;5079328;28;20039;-72
2023/08/14 03:41:15;;;;;;;6.93;4.07;;;21.50;99.90;;;;;;5078837;28;20542;-72
2023/08/14 03:44:19;;;;;;;21.95;4.88;;;21.40;99.90;;;;;;5078894;28;20050;-72
2023/08/14 03:47:23;;;;;;;6.60;4.65;;;21.40;99.90;;;;;;5090551;28;20054;-73
2023/08/14 03:50:27;;;;;;;6.20;4.22;;;21.10;99.90;;;;;;5078482;28;20035;-73
2023/08/14 03:56:53;;;;;;;8.70;4.90;;;21.00;99.90;;;;;;5090662;28;20047;-74
2023/08/14 04:03:21;;;;;;;8.38;4.53;;;20.90;99.90;;;;;;5089864;28;20047;-72
2023/08/14 04:07:03;;;;;;;7.28;4.80;;;20.80;99.90;;;;;;5089674;28;20047;-72
2023/08/14 04:10:08;;;;;;;9.07;4.65;;;20.70;99.90;;;;;;5076844;28;20039;-73
2023/08/14 04:13:12;;;;;;;7.20;4.45;;;20.70;99.90;;;;;;5078011;28;20501;-72
2023/08/14 04:16:41;;;;;;;9.00;4.93;;;20.60;99.90;;;;;;5090685;28;20039;-73
2023/08/14 04:19:45;;;;;;;5.45;4.30;;;20.50;99.90;;;;;;5078182;28;20043;-72
2023/08/14 04:22:49;;;;;;;7.07;5.40;;;20.50;99.90;;;;;;5085898;28;20047;-73
2023/08/14 04:25:54;;;;;;;8.23;4.50;;;20.60;99.90;;;;;;5089786;28;20063;-73
2023/08/14 04:32:40;;;;;;;7.50;4.10;;;20.70;99.90;;;;;;5067772;28;20039;-72
2023/08/14 04:35:45;;;;;;;6.97;4.40;;;20.60;99.90;;;;;;5058424;28;20498;-73
2023/08/14 04:39:08;;;;;;;7.57;4.10;;;20.60;99.90;;;;;;5070373;28;20047;-73
2023/08/14 04:49:17;;;;;;;8.65;4.22;;;20.70;99.90;;;;;;5069463;28;20055;-72
2023/08/14 04:56:02;;;;;;;16.02;5.03;;;20.80;99.90;;;;;;5057952;28;20059;-73
2023/08/14 05:02:30;;;;;;;11.20;5.43;;;20.90;99.90;;;;;;5045483;28;20039;-72
2023/08/14 05:09:16;;;;;;;11.35;4.68;;;20.90;99.90;;;;;;5086962;28;20043;-73
2023/08/14 05:12:20;;;;;;;8.95;4.72;;;20.80;99.90;;;;;;5065507;28;20048;-73
2023/08/14 05:15:24;;;;;;;8.88;4.50;;;20.80;99.90;;;;;;5079652;28;20600;-72
2023/08/14 05:18:29;;;;;;;6.75;4.88;;;22.50;99.90;;;;;;5080627;28;20063;-72
2023/08/14 05:21:51;;;;;;;14.43;4.78;;;25.70;99.90;;;;;;5081607;28;20043;-72
2023/08/14 05:24:55;;;;;;;6.78;3.78;;;28.10;99.90;;;;;;5094312;28;20047;-73
2023/08/14 05:27:59;;;;;;;4.60;3.70;;;29.80;99.90;;;;;;5087704;28;20043;-73
2023/08/14 05:31:07;;;;;;;4.38;3.42;;;30.50;97.40;;;;;;5090801;28;20039;-73
2023/08/14 05:34:11;;;;;;;5.70;3.72;;;30.90;96.00;;;;;;5094449;28;20047;-73
2023/08/14 05:37:34;;;;;;;5.45;4.10;;;31.40;95.40;;;;;;5079257;28;20043;-74
2023/08/14 05:40:57;;;;;;;7.53;3.78;;;32.20;93.80;;;;;;5082619;28;20057;-73
2023/08/14 05:44:20;;;;;;;8.00;3.67;;;33.00;92.90;;;;;;5093918;28;20471;-74
2023/08/14 05:47:24;;;;;;;4.28;3.42;;;33.60;92.00;;;;;;5093379;28;20051;-75
2023/08/14 05:50:28;;;;;;;10.85;3.75;;;34.20;91.00;;;;;;5094042;28;20047;-74
2023/08/14 05:53:51;;;;;;;3.95;3.38;;;33.30;90.90;;;;;;5094020;28;20390;-74
2023/08/14 05:56:55;;;;;;;4.90;3.28;;;32.70;91.10;;;;;;5081582;28;20138;-74
2023/08/14 06:00:18;;;;;;;4.97;3.28;;;33.30;90.80;;;;;;5094088;28;20390;-75
2023/08/14 06:03:42;;;;;;;6.85;3.63;;;34.10;90.30;;;;;;5093435;28;20051;-75
2023/08/14 06:06:46;;;;;;;7.72;3.05;;;34.60;89.50;;;;;;5089021;28;20039;-74
2023/08/14 06:09:50;;;;;;;4.13;3.08;;;34.20;89.40;;;;;;5093934;28;20390;-74
2023/08/14 06:12:54;;;;;;;5.40;3.53;;;32.90;89.80;;;;;;5093207;28;20505;-74
2023/08/14 06:16:16;;;;;;;5.18;3.00;;;32.40;90.50;;;;;;5093867;28;20400;-75
2023/08/14 06:19:20;;;;;;;6.47;3.35;;;33.20;90.30;;;;;;5094503;28;20047;-75
2023/08/14 06:22:25;;;;;;;5.85;3.13;;;32.90;89.50;;;;;;5094905;28;20051;-75
2023/08/14 06:25:31;;;;;;;4.70;3.50;;;32.30;90.50;;;;;;5093338;28;20047;-74
2023/08/14 06:28:35;;;;;;;5.50;3.55;;;33.20;90.20;;;;;;5093663;28;20509;-75
2023/08/14 06:31:57;;;;;;;6.35;3.67;;;32.80;89.40;;;;;;5093364;28;20031;-74
2023/08/14 06:35:39;;;;;;;5.65;2.80;;;31.80;90.80;;;;;;5088077;28;20043;-76
2023/08/14 06:38:43;;;;;;;4.68;2.67;;;31.90;90.90;;;;;;5089423;28;20035;-76
2023/08/14 06:42:06;;;;;;;4.78;3.08;;;33.20;90.60;;;;;;5080486;28;20040;-75
2023/08/14 06:45:29;;;;;;;6.38;2.92;;;33.60;88.70;;;;;;5090039;28;20058;-76
2023/08/14 06:48:33;;;;;;;6.85;2.85;;;33.80;88.90;;;;;;5085832;28;20051;-77
2023/08/14 06:51:38;;;;;;;4.60;3.10;;;33.60;87.90;;;;;;5059888;28;20045;-76
2023/08/14 06:54:42;;;;;;;7.10;2.95;;;34.00;88.20;;;;;;5086858;28;20047;-76
2023/08/14 06:57:46;;;;;;;6.35;2.90;;;34.80;87.10;;;;;;5092507;28;20410;-76
2023/08/14 07:00:50;;;;;;;7.22;3.25;;;34.60;85.30;;;;;;5090779;28;20055;-76
2023/08/14 07:04:13;;;;;;;3.42;2.70;;;34.80;85.90;;;;;;5063401;28;20051;-76
2023/08/14 07:07:17;;;;;;;6.72;2.72;;;36.20;83.80;;;;;;5087995;28;20403;-76
2023/08/14 07:10:21;;;;;;;6.10;2.22;;;36.80;83.00;;;;;;5077974;28;20612;-78
2023/08/14 07:13:25;;;;;;;8.95;2.88;;;37.20;80.80;;;;;;5083778;28;20055;-76
2023/08/14 07:16:49;;;;;;;3.42;2.78;;;36.80;79.20;;;;;;5085643;28;20054;-75
2023/08/14 07:19:53;;;;;;;7.22;2.50;;;36.80;80.00;;;;;;5085418;28;20054;-76
2023/08/14 07:26:19;;;;;;;4.13;2.70;;;36.20;79.30;;;;;;5087339;28;22508;-75
2023/08/14 07:29:22;;;;;;;5.20;2.30;;;37.20;78.90;;;;;;5087671;28;20039;-75
2023/08/14 07:32:45;;;;;;;5.90;2.45;;;37.70;77.70;;;;;;5090398;28;20039;-76
2023/08/14 07:35:49;;;;;;;4.15;2.40;;;36.10;77.80;;;;;;5083352;28;20043;-74
2023/08/14 07:42:35;;;;;;;4.57;2.80;;;35.80;79.70;;;;;;5084890;28;20044;-75
2023/08/14 07:45:39;;;;;;;4.13;3.05;;;37.00;79.30;;;;;;5089359;28;20051;-77
2023/08/14 07:48:43;;;;;;;9.68;2.55;;;36.60;79.50;;;;;;5077632;28;20039;-76
2023/08/14 07:51:47;;;;;;;5.53;2.50;;;37.10;80.10;;;;;;5076799;28;20067;-78
2023/08/14 07:54:51;;;;;;;5.18;2.25;;;38.10;78.20;;;;;;5081463;28;20043;-77
2023/08/14 07:57:55;;;;;;;7.43;2.53;;;37.60;77.40;;;;;;5088648;28;20051;-78
2023/08/14 08:00:59;;;;;;;6.65;2.28;;;37.70;78.70;;;;;;5091263;28;20043;-75
2023/08/14 08:04:03;;;;;;;3.90;2.35;;;37.90;77.90;;;;;;5091224;28;20047;-77
2023/08/14 08:07:08;;;;;;;6.05;3.03;;;38.30;76.20;;;;;;5087861;28;20051;-74
2023/08/14 08:10:31;;;;;;;3.08;2.15;;;36.90;76.20;;;;;;5067289;28;20047;-75
2023/08/14 08:13:35;;;;;;;5.18;2.40;;;36.90;78.40;;;;;;5088941;28;20031;-73
2023/08/14 08:16:58;;;;;;;4.38;2.40;;;37.70;78.50;;;;;;5086568;28;20058;-74
2023/08/14 08:20:04;;;;;;;4.13;1.92;;;39.70;76.30;;;;;;5087225;28;20398;-73
2023/08/14 08:23:08;;;;;;;4.65;2.28;;;39.10;71.90;;;;;;5090946;28;20046;-71
2023/08/14 08:26:12;;;;;;;7.25;2.22;;;38.90;72.30;;;;;;5078365;28;20258;-73
2023/08/14 08:29:16;;;;;;;4.85;2.35;;;38.90;71.00;;;;;;5083625;28;20039;-73
2023/08/14 08:32:20;;;;;;;5.97;2.00;;;38.10;73.60;;;;;;5090281;28;20584;-73
2023/08/14 08:35:24;;;;;;;7.10;2.17;;;39.70;72.90;;;;;;5078490;28;20055;-73
2023/08/14 08:38:28;;;;;;;4.05;1.83;;;40.10;70.60;;;;;;5091006;28;20055;-73
2023/08/14 08:41:35;;;;;;;3.95;1.98;;;41.60;68.10;;;;;;5080046;28;20051;-73
2023/08/14 08:45:04;;;;;;;4.20;1.90;;;41.70;66.40;;;;;;5086091;28;20051;-73
2023/08/14 08:48:07;;;;;;;2.75;1.60;;;41.80;64.30;;;;;;5088666;28;20047;-73
2023/08/14 08:51:33;;;;;;;3.97;1.70;;;42.50;64.10;;;;;;5089732;28;20035;-72
2023/08/14 08:54:39;;;;;;;5.53;1.75;;;41.70;64.50;;;;;;5089947;28;20051;-72
2023/08/14 08:58:03;;;;;;;5.25;1.90;;;41.60;63.70;;;;;;5066489;28;20044;-73
2023/08/14 09:01:07;;;;;;;5.60;1.90;;;40.60;65.50;;;;;;5086787;28;20055;-74
2023/08/14 09:04:11;;;;;;;2.17;1.70;;;42.90;63.80;;;;;;5085299;28;20047;-74
2023/08/14 09:07:15;;;;;;;2.47;1.58;;;45.40;62.10;;;;;;5088256;28;20063;-74
2023/08/14 09:10:38;;;;;;;3.65;1.80;;;47.50;58.20;;;;;;5088537;28;20039;-73
2023/08/14 09:13:42;;;;;;;6.10;1.67;;;48.20;56.00;;;;;;5087892;28;20047;-74
2023/08/14 09:16:46;;;;;;;1.83;1.40;;;48.70;54.60;;;;;;5076332;28;20494;-74
2023/08/14 09:20:14;;;;;;;3.97;1.50;;;49.10;52.90;;;;;;5072176;28;20051;-73
2023/08/14 09:23:18;;;;;;;6.70;1.35;;;50.00;52.20;;;;;;5087931;28;20043;-73
2023/08/14 09:26:42;;;;;;;1.67;1.30;;;50.70;51.30;;;;;;5089933;28;20052;-74
2023/08/14 09:29:53;;;;;;;9.30;1.73;;;51.00;50.20;;;;;;5077613;28;20039;-73
2023/08/14 09:36:20;;;;;;;5.13;1.45;;;49.80;50.90;;;;;;5089658;28;20043;-74
2023/08/14 09:40:01;;;;;;;2.33;1.45;;;50.80;51.10;;;;;;5090233;28;20579;-74
2023/08/14 09:43:44;;;;;;;4.53;1.35;;;51.00;51.30;;;;;;5081171;28;20043;-74
2023/08/14 09:46:54;;;;;;;1.67;1.20;;;52.00;50.00;;;;;;5079533;28;20393;-72
2023/08/14 09:49:59;;;;;;;3.42;1.25;;;51.20;50.20;;;;;;5085871;28;20035;-74
2023/08/14 09:53:04;;;;;;;17.58;1.92;;;52.20;49.10;;;;;;5084070;28;20039;-72
2023/08/14 09:56:10;;;;;;;3.33;1.70;;;52.30;49.10;;;;;;5089523;28;20051;-72
2023/08/14 09:59:35;;;;;;;5.25;1.20;;;51.20;49.20;;;;;;5085688;28;20047;-71
2023/08/14 10:03:18;;;;;;;3.65;1.40;;;48.40;48.40;;;;;;5093537;28;20039;-71
2023/08/14 10:06:23;;;;;;;2.85;1.40;;;49.80;50.20;;;;;;5088443;28;20055;-70
2023/08/14 10:09:31;;;;;;;6.47;1.63;;;51.80;49.70;;;;;;5089239;28;20039;-70
2023/08/14 10:12:55;;;;;;;;;;;51.30;48.80;;;;;;5073801;28;20035;-70
2023/08/14 10:16:02;;;;;;;2.97;1.50;;;50.50;50.10;;;;;;5092842;28;20278;-71
2023/08/14 10:19:12;;;;;;;2.65;1.42;;;50.30;50.40;;;;;;5094265;28;20051;-71
2023/08/14 10:22:17;;;;;;;6.97;1.40;;;51.00;49.70;;;;;;5093460;28;20043;-70
2023/08/14 10:25:24;;;;;;;3.63;1.58;;;51.20;49.70;;;;;;5093444;28;20537;-72
2023/08/14 10:28:47;;;;;;;5.10;1.50;;;52.10;50.30;;;;;;5093260;28;20512;-71
2023/08/14 10:35:51;;;;;;;3.33;1.58;;;51.00;50.30;;;;;;5092195;28;20421;-71
2023/08/14 10:39:04;;;;;;;2.38;1.52;;;49.40;51.10;;;;;;5073085;28;20063;-72
2023/08/14 10:42:12;;;;;;;2.78;1.50;;;47.60;50.70;;;;;;5089626;28;20043;-71
2023/08/14 10:45:17;;;;;;;1.70;1.35;;;47.30;51.40;;;;;;5077569;28;20047;-70
2023/08/14 13:47:07;;;;;;;6.03;2.10;;;44.00;56.00;;;;;;5095149;28;20056;-73
2023/08/14 13:50:12;;;;;;;13.32;1.90;;;44.30;55.70;;;;;;5079770;28;20047;-71
2023/08/14 13:53:16;;;;;;;3.75;1.67;;;44.40;55.30;;;;;;5091678;28;20039;-71
2023/08/14 13:56:38;;;;;;;5.13;1.80;;;43.80;55.50;;;;;;5093683;28;20059;-70
2023/08/14 13:59:42;;;;;;;3.97;2.22;;;43.20;55.90;;;;;;5088504;28;20051;-70
2023/08/14 14:02:46;;;;;;;3.55;2.00;;;42.60;56.40;;;;;;5091943;28;20357;-68
2023/08/14 14:06:12;;;;;;;5.35;2.17;;;41.80;56.60;;;;;;5091311;28;20047;-71
2023/08/14 14:09:34;;;;;;;6.72;2.15;;;41.70;58.00;;;;;;5091041;28;20501;-71
2023/08/14 14:12:57;;;;;;;19.13;2.50;;;41.80;57.40;;;;;;5093672;28;20386;-71
2023/08/14 14:16:21;;;;;;;6.68;2.13;;;41.80;58.40;;;;;;5084074;28;20390;-72
2023/08/14 14:19:27;;;;;;;2.90;1.80;;;41.70;58.10;;;;;;5093747;28;20054;-71
2023/08/14 14:22:31;;;;;;;4.57;2.10;;;41.30;58.60;;;;;;5093671;28;20047;-71
2023/08/14 14:25:35;;;;;;;4.18;1.65;;;40.80;58.40;;;;;;5093764;28;20051;-71
2023/08/14 14:28:58;;;;;;;7.75;2.10;;;40.70;58.90;;;;;;5092800;28;20039;-73
2023/08/14 14:32:02;;;;;;;4.53;2.05;;;40.70;58.80;;;;;;5093107;28;20047;-71
2023/08/14 14:35:25;;;;;;;7.22;2.10;;;40.40;59.20;;;;;;5093908;28;20661;-71
2023/08/14 14:38:29;;;;;;;5.75;2.15;;;40.00;59.80;;;;;;5081280;28;20055;-71
2023/08/14 14:41:33;;;;;;;5.20;2.08;;;39.70;59.50;;;;;;5092882;28;20051;-71
2023/08/14 14:44:37;;;;;;;6.20;2.13;;;39.50;60.50;;;;;;5093524;28;20055;-70
2023/08/14 14:48:00;;;;;;;3.95;2.05;;;39.30;60.70;;;;;;5092078;28;20387;-70
2023/08/14 14:51:04;;;;;;;4.60;2.25;;;39.30;60.50;;;;;;5092826;28;20035;-70
2023/08/14 14:54:08;;;;;;;6.07;2.33;;;38.80;60.00;;;;;;5092637;28;20051;-70
2023/08/14 14:57:12;;;;;;;5.45;2.10;;;38.10;60.90;;;;;;5093323;28;20043;-71
2023/08/14 15:00:17;;;;;;;2.85;2.00;;;38.40;61.50;;;;;;5093058;28;20498;-72
2023/08/14 15:03:21;;;;;;;5.80;1.85;;;38.40;61.50;;;;;;5091560;28;20051;-72
2023/08/14 15:06:43;;;;;;;10.15;2.67;;;38.40;61.70;;;;;;5084132;28;20047;-72
2023/08/14 15:09:47;;;;;;;4.38;2.72;;;38.40;62.00;;;;;;5088672;28;20063;-73
2023/08/14 15:16:14;;;;;;;2.78;1.90;;;38.50;61.30;;;;;;5072474;28;20051;-72
2023/08/14 15:19:19;;;;;;;4.60;2.15;;;38.70;60.60;;;;;;5092548;28;20031;-72
2023/08/14 15:26:23;;;;;;;5.18;1.75;;;38.40;60.80;;;;;;5092926;28;20051;-72
2023/08/14 15:29:27;;;;;;;3.95;2.30;;;37.90;60.70;;;;;;5092390;28;20043;-73
2023/08/14 15:32:31;;;;;;;4.40;1.95;;;37.70;61.70;;;;;;5079543;28;20039;-72
2023/08/14 15:35:35;;;;;;;4.60;2.05;;;37.80;61.80;;;;;;5092344;28;20341;-72
2023/08/14 15:38:59;;;;;;;6.57;2.20;;;37.80;61.10;;;;;;5071926;28;20498;-72
2023/08/14 15:42:25;;;;;;;4.55;2.10;;;37.90;61.70;;;;;;5072660;28;20399;-73
2023/08/14 15:45:47;;;;;;;4.35;2.05;;;37.80;62.00;;;;;;5091634;28;20051;-71
2023/08/14 15:49:10;;;;;;;5.80;2.42;;;37.60;63.00;;;;;;5071545;28;20399;-71
2023/08/14 15:52:17;;;;;;;4.10;2.10;;;37.60;63.40;;;;;;5071366;28;20036;-72
2023/08/14 15:55:40;;;;;;;4.70;1.90;;;37.60;63.60;;;;;;5075733;28;20047;-73
2023/08/14 15:59:21;;;;;;;5.43;2.10;;;37.60;63.30;;;;;;5088964;28;20043;-72
2023/08/14 16:02:25;;;;;;;3.90;2.42;;;37.40;64.30;;;;;;5091446;28;20502;-71
2023/08/14 16:05:53;;;;;;;6.32;2.00;;;37.40;63.70;;;;;;5091450;28;20655;-72
2023/08/14 16:08:57;;;;;;;3.47;2.25;;;37.50;62.60;;;;;;5091777;28;20039;-72
2023/08/14 16:12:01;;;;;;;3.20;2.20;;;37.40;63.20;;;;;;5078864;28;20043;-72
2023/08/14 16:15:06;;;;;;;4.28;2.90;;;37.30;63.20;;;;;;5091719;28;20505;-73
2023/08/14 16:18:10;;;;;;;4.95;3.08;;;36.90;63.50;;;;;;5091478;28;20047;-69
2023/08/14 16:21:14;;;;;;;4.90;2.42;;;36.30;66.40;;;;;;5090858;28;20039;-71
2023/08/14 16:24:38;;;;;;;5.75;2.30;;;35.10;68.40;;;;;;5091427;28;20316;-71
2023/08/14 16:27:42;;;;;;;3.30;2.20;;;34.50;69.60;;;;;;5091191;28;20106;-74
2023/08/14 16:31:05;;;;;;;4.13;2.42;;;34.30;70.20;;;;;;5077668;28;20031;-74
2023/08/14 16:34:09;;;;;;;3.63;2.50;;;34.30;69.90;;;;;;5091373;28;20043;-73
2023/08/14 16:37:13;;;;;;;8.43;2.50;;;34.20;70.60;;;;;;5091043;28;20043;-74
2023/08/14 16:40:17;;;;;;;5.35;2.45;;;34.10;70.10;;;;;;5091221;28;20489;-73
2023/08/14 16:43:40;;;;;;;3.45;2.60;;;33.90;70.20;;;;;;5090833;28;20043;-74
2023/08/14 16:46:45;;;;;;;6.40;2.40;;;33.70;70.70;;;;;;5078366;28;20048;-73
2023/08/14 16:49:49;;;;;;;4.45;2.63;;;33.60;71.10;;;;;;5090646;28;20047;-74
2023/08/14 16:52:53;;;;;;;8.65;2.25;;;33.50;71.70;;;;;;5090409;28;20043;-74
2023/08/14 16:55:57;;;;;;;4.78;2.65;;;33.40;71.40;;;;;;5078303;28;20493;-74
2023/08/14 16:59:02;;;;;;;3.78;2.38;;;33.30;71.20;;;;;;5090853;28;20039;-74
2023/08/14 17:02:06;;;;;;;9.20;3.08;;;33.20;70.90;;;;;;5090786;28;20047;-74
2023/08/14 17:05:10;;;;;;;4.47;2.30;;;33.30;71.60;;;;;;5090561;28;20043;-74
2023/08/14 17:12:13;;;;;;;3.15;2.05;;;33.20;72.10;;;;;;5090212;28;20063;-74
2023/08/14 17:15:17;;;;;;;6.45;2.72;;;33.10;73.10;;;;;;5078738;28;20356;-73
2023/08/14 17:18:21;;;;;;;4.45;2.70;;;33.00;73.90;;;;;;5090763;28;20051;-73
2023/08/14 17:21:25;;;;;;;8.23;2.83;;;32.60;75.40;;;;;;5078513;28;20395;-74
2023/08/14 17:24:47;;;;;;;4.97;3.25;;;32.20;74.60;;;;;;5091009;28;20047;-73
2023/08/14 17:27:51;;;;;;;3.75;2.70;;;32.40;73.30;;;;;;5090389;28;20039;-73
2023/08/14 17:35:13;;;;;;;6.37;2.40;;;32.60;73.90;;;;;;5090769;28;19927;-74
2023/08/14 17:38:18;;;;;;;4.40;2.50;;;32.60;74.20;;;;;;5090259;28;20050;-73
2023/08/14 17:41:40;;;;;;;7.18;2.60;;;32.80;75.30;;;;;;5090605;28;20043;-73
2023/08/14 17:45:03;;;;;;;5.82;2.65;;;32.70;74.20;;;;;;5090417;28;20051;-74
2023/08/14 17:48:07;;;;;;;3.28;2.40;;;32.60;75.10;;;;;;5089953;28;20062;-73
2023/08/14 17:51:30;;;;;;;5.50;2.42;;;32.30;76.00;;;;;;5090294;28;20580;-74
2023/08/14 17:54:53;;;;;;;5.18;2.30;;;31.60;76.40;;;;;;5090467;28;20534;-72
2023/08/14 17:58:16;;;;;;;4.45;2.42;;;31.30;77.20;;;;;;5090081;28;20047;-72
2023/08/14 18:01:20;;;;;;;7.03;2.85;;;31.00;77.20;;;;;;5090445;28;20047;-72
2023/08/14 18:04:43;;;;;;;8.30;2.22;;;30.60;77.90;;;;;;5090100;28;20055;-72
2023/08/14 18:08:25;;;;;;;4.38;2.30;;;30.40;78.20;;;;;;5089787;28;20051;-71
2023/08/14 18:11:29;;;;;;;4.72;2.35;;;30.20;78.00;;;;;;5089814;28;20058;-71
2023/08/14 18:14:33;;;;;;;5.32;2.40;;;30.00;78.20;;;;;;5090047;28;20040;-72
2023/08/14 18:17:37;;;;;;;3.45;2.38;;;30.00;78.50;;;;;;5090103;28;20043;-73
2023/08/14 18:20:41;;;;;;;4.90;2.33;;;29.90;78.60;;;;;;5090031;28;20047;-72
2023/08/14 18:23:46;;;;;;;3.80;2.40;;;29.80;78.80;;;;;;5093636;28;20233;-73
2023/08/14 18:27:08;;;;;;;4.75;2.33;;;29.70;78.90;;;;;;5083611;28;20047;-73
2023/08/14 18:30:13;;;;;;;5.03;2.63;;;29.70;78.90;;;;;;5093503;28;20050;-72
2023/08/14 18:34:13;;;;;;;5.15;2.60;;;29.60;79.30;;;;;;5093227;28;20040;-73
2023/08/14 18:40:44;;;;;;;10.52;2.90;;;29.40;79.50;;;;;;5093646;28;20039;-72
2023/08/14 18:44:07;;;;;;;4.68;2.28;;;29.30;79.80;;;;;;5093189;28;20383;-71
2023/08/14 18:47:11;;;;;;;6.25;2.50;;;29.20;79.90;;;;;;5093025;28;20039;-72
2023/08/14 18:50:15;;;;;;;6.18;2.50;;;29.20;80.40;;;;;;5093102;28;20050;-72
2023/08/14 18:53:19;;;;;;;4.93;2.50;;;29.10;80.70;;;;;;5092973;28;20039;-72
2023/08/14 18:56:23;;;;;;;3.90;2.70;;;29.00;80.90;;;;;;5093068;28;20043;-73
2023/08/14 18:59:29;;;;;;;4.53;2.85;;;29.00;81.20;;;;;;5092952;28;20089;-71
2023/08/14 19:02:32;;;;;;;7.10;3.15;;;28.90;81.30;;;;;;5093001;28;20047;-72
2023/08/14 19:05:36;;;;;;;5.10;2.42;;;28.90;81.90;;;;;;5092886;28;20043;-72
